sensor_id;sensor_type;location;lat;lon;timestamp;P1;durP1;ratioP1;P2;durP2;ratioP2
43449;SDS011;29041;42.266;23.110;2023-04-12T00:02:32;4.72;;;3.50;;
43449;SDS011;29041;42.266;23.110;2023-04-12T00:05:20;6.85;;;4.22;;
43449;SDS011;29041;42.266;23.110;2023-04-12T00:08:08;6.60;;;4.38;;
43449;SDS011;29041;42.266;23.110;2023-04-12T00:10:55;6.18;;;4.22;;
43449;SDS011;29041;42.266;23.110;2023-04-12T00:13:42;5.95;;;3.58;;
43449;SDS011;29041;42.266;23.110;2023-04-12T00:16:29;5.68;;;3.20;;
43449;SDS011;29041;42.266;23.110;2023-04-12T00:19:18;6.10;;;4.03;;
43449;SDS011;29041;42.266;23.110;2023-04-12T00:22:05;5.95;;;3.22;;
43449;SDS011;29041;42.266;23.110;2023-04-12T00:24:56;8.77;;;4.32;;
43449;SDS011;29041;42.266;23.110;2023-04-12T00:27:43;6.75;;;4.18;;
43449;SDS011;29041;42.266;23.110;2023-04-12T00:30:30;6.00;;;3.60;;
43449;SDS011;29041;42.266;23.110;2023-04-12T00:33:17;7.00;;;3.75;;
43449;SDS011;29041;42.266;23.110;2023-04-12T00:36:04;7.63;;;4.47;;
43449;SDS011;29041;42.266;23.110;2023-04-12T00:38:51;6.07;;;4.03;;
43449;SDS011;29041;42.266;23.110;2023-04-12T00:41:44;8.88;;;4.15;;
43449;SDS011;29041;42.266;23.110;2023-04-12T00:44:31;6.63;;;3.65;;
43449;SDS011;29041;42.266;23.110;2023-04-12T00:47:21;6.22;;;3.90;;
43449;SDS011;29041;42.266;23.110;2023-04-12T00:50:10;6.60;;;3.67;;
43449;SDS011;29041;42.266;23.110;2023-04-12T00:53:05;9.05;;;4.60;;
43449;SDS011;29041;42.266;23.110;2023-04-12T00:55:54;8.20;;;5.05;;
43449;SDS011;29041;42.266;23.110;2023-04-12T00:58:42;6.35;;;4.13;;
43449;SDS011;29041;42.266;23.110;2023-04-12T01:01:29;5.80;;;3.88;;
43449;SDS011;29041;42.266;23.110;2023-04-12T01:04:17;7.45;;;5.07;;
43449;SDS011;29041;42.266;23.110;2023-04-12T01:07:09;6.05;;;3.83;;
43449;SDS011;29041;42.266;23.110;2023-04-12T01:10:01;7.45;;;4.15;;
43449;SDS011;29041;42.266;23.110;2023-04-12T01:12:57;9.07;;;4.88;;
43449;SDS011;29041;42.266;23.110;2023-04-12T01:15:49;11.75;;;4.93;;
43449;SDS011;29041;42.266;23.110;2023-04-12T01:18:44;11.40;;;5.15;;
43449;SDS011;29041;42.266;23.110;2023-04-12T01:21:39;8.15;;;4.78;;
43449;SDS011;29041;42.266;23.110;2023-04-12T01:24:30;12.18;;;4.53;;
43449;SDS011;29041;42.266;23.110;2023-04-12T01:27:37;9.70;;;4.88;;
43449;SDS011;29041;42.266;23.110;2023-04-12T01:30:25;6.90;;;4.75;;
43449;SDS011;29041;42.266;23.110;2023-04-12T01:33:13;8.48;;;5.65;;
43449;SDS011;29041;42.266;23.110;2023-04-12T01:36:02;9.45;;;4.47;;
43449;SDS011;29041;42.266;23.110;2023-04-12T01:38:50;7.95;;;5.00;;
43449;SDS011;29041;42.266;23.110;2023-04-12T01:41:37;7.80;;;4.25;;
43449;SDS011;29041;42.266;23.110;2023-04-12T01:44:27;12.98;;;6.55;;
43449;SDS011;29041;42.266;23.110;2023-04-12T01:47:14;11.27;;;6.57;;
43449;SDS011;29041;42.266;23.110;2023-04-12T01:50:02;9.65;;;5.35;;
43449;SDS011;29041;42.266;23.110;2023-04-12T01:52:58;7.55;;;4.63;;
43449;SDS011;29041;42.266;23.110;2023-04-12T01:55:47;6.00;;;4.30;;
43449;SDS011;29041;42.266;23.110;2023-04-12T01:58:35;6.93;;;4.40;;
43449;SDS011;29041;42.266;23.110;2023-04-12T02:01:24;7.85;;;4.63;;
43449;SDS011;29041;42.266;23.110;2023-04-12T02:04:13;7.88;;;4.60;;
43449;SDS011;29041;42.266;23.110;2023-04-12T02:07:01;8.70;;;4.55;;
43449;SDS011;29041;42.266;23.110;2023-04-12T02:09:48;6.60;;;4.55;;
43449;SDS011;29041;42.266;23.110;2023-04-12T02:12:35;8.55;;;4.78;;
43449;SDS011;29041;42.266;23.110;2023-04-12T02:15:22;7.70;;;4.03;;
43449;SDS011;29041;42.266;23.110;2023-04-12T02:18:11;7.80;;;4.82;;
43449;SDS011;29041;42.266;23.110;2023-04-12T02:21:01;9.25;;;5.85;;
43449;SDS011;29041;42.266;23.110;2023-04-12T02:23:48;10.02;;;6.18;;
43449;SDS011;29041;42.266;23.110;2023-04-12T02:26:35;8.18;;;5.82;;
43449;SDS011;29041;42.266;23.110;2023-04-12T02:29:22;8.35;;;5.63;;
43449;SDS011;29041;42.266;23.110;2023-04-12T02:32:10;8.07;;;5.32;;
43449;SDS011;29041;42.266;23.110;2023-04-12T02:34:59;7.40;;;4.57;;
43449;SDS011;29041;42.266;23.110;2023-04-12T02:37:47;10.18;;;5.60;;
43449;SDS011;29041;42.266;23.110;2023-04-12T02:40:36;8.57;;;4.47;;
43449;SDS011;29041;42.266;23.110;2023-04-12T02:43:23;9.10;;;4.40;;
43449;SDS011;29041;42.266;23.110;2023-04-12T02:46:14;8.48;;;6.03;;
43449;SDS011;29041;42.266;23.110;2023-04-12T02:49:02;8.52;;;5.05;;
43449;SDS011;29041;42.266;23.110;2023-04-12T02:51:50;9.35;;;6.15;;
43449;SDS011;29041;42.266;23.110;2023-04-12T02:54:37;8.05;;;5.47;;
43449;SDS011;29041;42.266;23.110;2023-04-12T02:57:24;8.13;;;5.43;;
43449;SDS011;29041;42.266;23.110;2023-04-12T03:00:11;9.80;;;5.18;;
43449;SDS011;29041;42.266;23.110;2023-04-12T03:02:59;13.85;;;6.22;;
43449;SDS011;29041;42.266;23.110;2023-04-12T03:05:47;9.32;;;5.65;;
43449;SDS011;29041;42.266;23.110;2023-04-12T03:08:35;9.02;;;5.32;;
43449;SDS011;29041;42.266;23.110;2023-04-12T03:11:22;9.50;;;5.47;;
43449;SDS011;29041;42.266;23.110;2023-04-12T03:14:09;10.65;;;5.78;;
43449;SDS011;29041;42.266;23.110;2023-04-12T03:16:56;9.55;;;5.00;;
43449;SDS011;29041;42.266;23.110;2023-04-12T03:19:43;9.20;;;5.07;;
43449;SDS011;29041;42.266;23.110;2023-04-12T03:22:30;9.63;;;5.47;;
43449;SDS011;29041;42.266;23.110;2023-04-12T03:25:19;8.88;;;5.95;;
43449;SDS011;29041;42.266;23.110;2023-04-12T03:28:05;10.10;;;6.07;;
43449;SDS011;29041;42.266;23.110;2023-04-12T03:30:54;11.85;;;5.97;;
43449;SDS011;29041;42.266;23.110;2023-04-12T03:33:41;14.75;;;5.97;;
43449;SDS011;29041;42.266;23.110;2023-04-12T03:36:28;13.50;;;6.38;;
43449;SDS011;29041;42.266;23.110;2023-04-12T03:39:15;9.52;;;6.15;;
43449;SDS011;29041;42.266;23.110;2023-04-12T03:42:04;10.23;;;6.70;;
43449;SDS011;29041;42.266;23.110;2023-04-12T03:44:51;12.07;;;6.82;;
43449;SDS011;29041;42.266;23.110;2023-04-12T03:47:38;9.10;;;6.60;;
43449;SDS011;29041;42.266;23.110;2023-04-12T03:50:25;10.27;;;5.25;;
43449;SDS011;29041;42.266;23.110;2023-04-12T03:53:14;11.77;;;5.38;;
43449;SDS011;29041;42.266;23.110;2023-04-12T03:56:00;11.18;;;6.00;;
43449;SDS011;29041;42.266;23.110;2023-04-12T03:58:49;7.95;;;5.38;;
43449;SDS011;29041;42.266;23.110;2023-04-12T04:01:36;13.15;;;6.82;;
43449;SDS011;29041;42.266;23.110;2023-04-12T04:04:23;9.55;;;5.45;;
43449;SDS011;29041;42.266;23.110;2023-04-12T04:07:10;9.55;;;6.32;;
43449;SDS011;29041;42.266;23.110;2023-04-12T04:10:02;14.02;;;6.97;;
43449;SDS011;29041;42.266;23.110;2023-04-12T04:12:50;19.75;;;10.02;;
43449;SDS011;29041;42.266;23.110;2023-04-12T04:15:38;13.30;;;6.80;;
43449;SDS011;29041;42.266;23.110;2023-04-12T04:18:25;10.32;;;6.70;;
43449;SDS011;29041;42.266;23.110;2023-04-12T04:21:11;14.73;;;8.07;;
43449;SDS011;29041;42.266;23.110;2023-04-12T04:23:59;12.18;;;7.05;;
43449;SDS011;29041;42.266;23.110;2023-04-12T04:26:46;10.88;;;6.45;;
43449;SDS011;29041;42.266;23.110;2023-04-12T04:29:34;18.20;;;8.85;;
43449;SDS011;29041;42.266;23.110;2023-04-12T04:32:31;13.20;;;6.80;;
43449;SDS011;29041;42.266;23.110;2023-04-12T04:35:18;10.45;;;5.90;;
43449;SDS011;29041;42.266;23.110;2023-04-12T04:38:06;13.80;;;8.85;;
43449;SDS011;29041;42.266;23.110;2023-04-12T04:40:53;15.43;;;6.93;;
43449;SDS011;29041;42.266;23.110;2023-04-12T04:43:40;11.95;;;7.68;;
43449;SDS011;29041;42.266;23.110;2023-04-12T04:46:27;13.35;;;7.63;;
43449;SDS011;29041;42.266;23.110;2023-04-12T04:49:18;9.35;;;6.45;;
43449;SDS011;29041;42.266;23.110;2023-04-12T04:52:05;16.20;;;6.97;;
43449;SDS011;29041;42.266;23.110;2023-04-12T04:54:53;11.65;;;6.85;;
43449;SDS011;29041;42.266;23.110;2023-04-12T04:57:42;12.32;;;6.63;;
43449;SDS011;29041;42.266;23.110;2023-04-12T05:00:29;10.75;;;5.90;;
43449;SDS011;29041;42.266;23.110;2023-04-12T05:03:16;11.73;;;6.55;;
43449;SDS011;29041;42.266;23.110;2023-04-12T05:06:04;9.13;;;5.60;;
43449;SDS011;29041;42.266;23.110;2023-04-12T05:15:42;12.13;;;7.18;;
43449;SDS011;29041;42.266;23.110;2023-04-12T05:18:34;12.00;;;6.63;;
43449;SDS011;29041;42.266;23.110;2023-04-12T05:26:33;9.80;;;6.28;;
43449;SDS011;29041;42.266;23.110;2023-04-12T05:29:21;12.23;;;6.43;;
43449;SDS011;29041;42.266;23.110;2023-04-12T05:32:13;8.52;;;5.82;;
43449;SDS011;29041;42.266;23.110;2023-04-12T05:35:02;10.27;;;6.63;;
43449;SDS011;29041;42.266;23.110;2023-04-12T05:37:53;9.57;;;6.60;;
43449;SDS011;29041;42.266;23.110;2023-04-12T05:40:42;10.43;;;7.30;;
43449;SDS011;29041;42.266;23.110;2023-04-12T05:54:23;9.32;;;4.75;;
43449;SDS011;29041;42.266;23.110;2023-04-12T05:57:12;12.50;;;5.40;;
43449;SDS011;29041;42.266;23.110;2023-04-12T06:00:01;8.45;;;5.28;;
43449;SDS011;29041;42.266;23.110;2023-04-12T06:03:01;10.32;;;6.80;;
43449;SDS011;29041;42.266;23.110;2023-04-12T06:06:02;8.82;;;5.13;;
43449;SDS011;29041;42.266;23.110;2023-04-12T06:08:50;9.23;;;4.82;;
43449;SDS011;29041;42.266;23.110;2023-04-12T06:11:45;6.95;;;4.07;;
43449;SDS011;29041;42.266;23.110;2023-04-12T06:14:46;8.73;;;4.65;;
43449;SDS011;29041;42.266;23.110;2023-04-12T06:17:51;7.63;;;4.45;;
43449;SDS011;29041;42.266;23.110;2023-04-12T06:20:40;10.98;;;4.35;;
43449;SDS011;29041;42.266;23.110;2023-04-12T06:23:37;10.00;;;5.30;;
43449;SDS011;29041;42.266;23.110;2023-04-12T06:26:29;8.52;;;4.97;;
43449;SDS011;29041;42.266;23.110;2023-04-12T06:29:17;6.15;;;4.68;;
43449;SDS011;29041;42.266;23.110;2023-04-12T06:32:17;7.82;;;3.58;;
43449;SDS011;29041;42.266;23.110;2023-04-12T06:35:10;5.20;;;2.97;;
43449;SDS011;29041;42.266;23.110;2023-04-12T06:38:06;4.40;;;3.20;;
43449;SDS011;29041;42.266;23.110;2023-04-12T06:41:02;7.43;;;2.92;;
43449;SDS011;29041;42.266;23.110;2023-04-12T06:44:08;4.68;;;3.00;;
43449;SDS011;29041;42.266;23.110;2023-04-12T06:47:19;6.90;;;2.95;;
43449;SDS011;29041;42.266;23.110;2023-04-12T06:50:07;4.65;;;2.35;;
43449;SDS011;29041;42.266;23.110;2023-04-12T06:52:54;4.05;;;2.75;;
43449;SDS011;29041;42.266;23.110;2023-04-12T06:55:52;4.13;;;1.98;;
43449;SDS011;29041;42.266;23.110;2023-04-12T06:58:43;2.53;;;1.10;;
43449;SDS011;29041;42.266;23.110;2023-04-12T07:01:30;3.92;;;2.10;;
43449;SDS011;29041;42.266;23.110;2023-04-12T07:10:58;2.35;;;1.67;;
43449;SDS011;29041;42.266;23.110;2023-04-12T07:19:19;5.70;;;2.25;;
43449;SDS011;29041;42.266;23.110;2023-04-12T07:25:26;4.70;;;2.47;;
43449;SDS011;29041;42.266;23.110;2023-04-12T07:28:31;2.13;;;1.67;;
43449;SDS011;29041;42.266;23.110;2023-04-12T07:31:21;4.50;;;2.47;;
43449;SDS011;29041;42.266;23.110;2023-04-12T07:34:15;6.80;;;2.33;;
43449;SDS011;29041;42.266;23.110;2023-04-12T07:37:06;4.20;;;2.78;;
43449;SDS011;29041;42.266;23.110;2023-04-12T07:39:54;3.17;;;2.28;;
43449;SDS011;29041;42.266;23.110;2023-04-12T07:42:41;4.85;;;3.10;;
43449;SDS011;29041;42.266;23.110;2023-04-12T07:45:44;2.65;;;2.45;;
43449;SDS011;29041;42.266;23.110;2023-04-12T07:48:33;2.28;;;2.08;;
43449;SDS011;29041;42.266;23.110;2023-04-12T07:51:52;2.05;;;1.73;;
43449;SDS011;29041;42.266;23.110;2023-04-12T07:54:45;2.90;;;2.25;;
43449;SDS011;29041;42.266;23.110;2023-04-12T07:57:36;1.95;;;1.77;;
43449;SDS011;29041;42.266;23.110;2023-04-12T08:00:24;5.70;;;3.50;;
43449;SDS011;29041;42.266;23.110;2023-04-12T08:03:33;29.35;;;12.30;;
43449;SDS011;29041;42.266;23.110;2023-04-12T08:06:29;4.90;;;3.97;;
43449;SDS011;29041;42.266;23.110;2023-04-12T08:09:23;50.45;;;15.75;;
43449;SDS011;29041;42.266;23.110;2023-04-12T08:12:11;34.78;;;12.05;;
43449;SDS011;29041;42.266;23.110;2023-04-12T08:14:58;9.20;;;4.50;;
43449;SDS011;29041;42.266;23.110;2023-04-12T08:17:54;4.25;;;3.03;;
43449;SDS011;29041;42.266;23.110;2023-04-12T08:24:08;4.07;;;2.58;;
43449;SDS011;29041;42.266;23.110;2023-04-12T08:26:59;2.40;;;1.67;;
43449;SDS011;29041;42.266;23.110;2023-04-12T08:30:04;14.50;;;6.25;;
43449;SDS011;29041;42.266;23.110;2023-04-12T08:32:54;2.60;;;1.80;;
43449;SDS011;29041;42.266;23.110;2023-04-12T08:35:55;2.75;;;1.70;;
43449;SDS011;29041;42.266;23.110;2023-04-12T08:38:43;7.72;;;3.47;;
43449;SDS011;29041;42.266;23.110;2023-04-12T08:41:38;4.97;;;3.53;;
43449;SDS011;29041;42.266;23.110;2023-04-12T08:44:31;5.45;;;3.50;;
43449;SDS011;29041;42.266;23.110;2023-04-12T08:47:24;4.13;;;2.30;;
43449;SDS011;29041;42.266;23.110;2023-04-12T08:50:13;6.40;;;2.78;;
43449;SDS011;29041;42.266;23.110;2023-04-12T08:53:01;7.32;;;4.80;;
43449;SDS011;29041;42.266;23.110;2023-04-12T08:55:49;11.60;;;5.22;;
43449;SDS011;29041;42.266;23.110;2023-04-12T08:58:38;9.68;;;4.65;;
43449;SDS011;29041;42.266;23.110;2023-04-12T09:01:32;6.32;;;3.45;;
43449;SDS011;29041;42.266;23.110;2023-04-12T09:04:29;6.25;;;3.75;;
43449;SDS011;29041;42.266;23.110;2023-04-12T09:07:18;11.77;;;5.63;;
43449;SDS011;29041;42.266;23.110;2023-04-12T09:10:29;9.30;;;3.97;;
43449;SDS011;29041;42.266;23.110;2023-04-12T09:13:51;16.98;;;7.72;;
43449;SDS011;29041;42.266;23.110;2023-04-12T09:16:48;6.03;;;3.72;;
43449;SDS011;29041;42.266;23.110;2023-04-12T09:19:50;2.25;;;1.58;;
43449;SDS011;29041;42.266;23.110;2023-04-12T09:22:44;2.22;;;1.55;;
43449;SDS011;29041;42.266;23.110;2023-04-12T09:25:35;1.75;;;1.27;;
43449;SDS011;29041;42.266;23.110;2023-04-12T09:28:32;1.50;;;1.27;;
43449;SDS011;29041;42.266;23.110;2023-04-12T09:37:20;6.35;;;1.20;;
43449;SDS011;29041;42.266;23.110;2023-04-12T09:42:51;0.90;;;0.80;;
43449;SDS011;29041;42.266;23.110;2023-04-12T09:46:05;1.48;;;1.00;;
43449;SDS011;29041;42.266;23.110;2023-04-12T09:49:14;1.80;;;0.77;;
43449;SDS011;29041;42.266;23.110;2023-04-12T10:02:01;1.52;;;0.98;;
43449;SDS011;29041;42.266;23.110;2023-04-12T10:07:43;3.00;;;1.15;;
43449;SDS011;29041;42.266;23.110;2023-04-12T10:10:43;3.80;;;0.82;;
43449;SDS011;29041;42.266;23.110;2023-04-12T10:13:46;1.45;;;0.90;;
43449;SDS011;29041;42.266;23.110;2023-04-12T10:16:45;0.77;;;0.63;;
43449;SDS011;29041;42.266;23.110;2023-04-12T10:19:45;0.90;;;0.50;;
43449;SDS011;29041;42.266;23.110;2023-04-12T10:28:39;0.52;;;0.40;;
43449;SDS011;29041;42.266;23.110;2023-04-12T10:37:12;0.52;;;0.52;;
43449;SDS011;29041;42.266;23.110;2023-04-12T10:40:00;1.58;;;0.68;;
43449;SDS011;29041;42.266;23.110;2023-04-12T10:47:58;1.27;;;0.77;;
43449;SDS011;29041;42.266;23.110;2023-04-12T10:53:34;1.70;;;0.80;;
43449;SDS011;29041;42.266;23.110;2023-04-12T11:07:37;0.85;;;0.50;;
43449;SDS011;29041;42.266;23.110;2023-04-12T11:10:43;1.98;;;0.80;;
43449;SDS011;29041;42.266;23.110;2023-04-12T11:17:25;0.30;;;0.20;;
43449;SDS011;29041;42.266;23.110;2023-04-12T11:20:18;19.45;;;2.88;;
43449;SDS011;29041;42.266;23.110;2023-04-12T11:26:52;0.45;;;0.32;;
43449;SDS011;29041;42.266;23.110;2023-04-12T11:30:11;1.90;;;0.50;;
43449;SDS011;29041;42.266;23.110;2023-04-12T11:33:09;0.77;;;0.40;;
43449;SDS011;29041;42.266;23.110;2023-04-12T11:36:15;0.82;;;0.50;;
43449;SDS011;29041;42.266;23.110;2023-04-12T11:39:27;0.85;;;0.30;;
43449;SDS011;29041;42.266;23.110;2023-04-12T11:45:02;0.80;;;0.73;;
43449;SDS011;29041;42.266;23.110;2023-04-12T11:50:29;0.90;;;0.30;;
43449;SDS011;29041;42.266;23.110;2023-04-12T11:53:40;0.60;;;0.30;;
43449;SDS011;29041;42.266;23.110;2023-04-12T12:00:21;1.00;;;0.40;;
43449;SDS011;29041;42.266;23.110;2023-04-12T12:03:37;1.95;;;0.50;;
43449;SDS011;29041;42.266;23.110;2023-04-12T12:06:41;1.02;;;0.30;;
43449;SDS011;29041;42.266;23.110;2023-04-12T12:09:53;0.73;;;0.38;;
43449;SDS011;29041;42.266;23.110;2023-04-12T12:13:09;1.25;;;0.40;;
43449;SDS011;29041;42.266;23.110;2023-04-12T12:23:04;0.70;;;0.30;;
43449;SDS011;29041;42.266;23.110;2023-04-12T12:26:09;1.52;;;0.52;;
43449;SDS011;29041;42.266;23.110;2023-04-12T12:32:52;1.50;;;0.30;;
43449;SDS011;29041;42.266;23.110;2023-04-12T12:35:43;0.52;;;0.40;;
43449;SDS011;29041;42.266;23.110;2023-04-12T12:38:47;1.38;;;0.40;;
43449;SDS011;29041;42.266;23.110;2023-04-12T12:41:51;0.85;;;0.30;;
43449;SDS011;29041;42.266;23.110;2023-04-12T12:44:59;1.20;;;0.50;;
43449;SDS011;29041;42.266;23.110;2023-04-12T12:47:50;1.27;;;0.68;;
43449;SDS011;29041;42.266;23.110;2023-04-12T12:50:39;2.92;;;0.95;;
43449;SDS011;29041;42.266;23.110;2023-04-12T12:53:55;0.85;;;0.52;;
43449;SDS011;29041;42.266;23.110;2023-04-12T12:57:03;9.48;;;0.93;;
43449;SDS011;29041;42.266;23.110;2023-04-12T13:00:07;28.42;;;10.40;;
43449;SDS011;29041;42.266;23.110;2023-04-12T13:03:11;1.10;;;0.60;;
43449;SDS011;29041;42.266;23.110;2023-04-12T13:06:15;1.05;;;0.38;;
43449;SDS011;29041;42.266;23.110;2023-04-12T13:09:29;0.43;;;0.30;;
43449;SDS011;29041;42.266;23.110;2023-04-12T13:12:50;0.85;;;0.52;;
43449;SDS011;29041;42.266;23.110;2023-04-12T13:21:29;2.65;;;1.55;;
43449;SDS011;29041;42.266;23.110;2023-04-12T13:28:09;2.53;;;0.90;;
43449;SDS011;29041;42.266;23.110;2023-04-12T13:30:58;0.95;;;0.52;;
43449;SDS011;29041;42.266;23.110;2023-04-12T13:34:04;1.10;;;0.50;;
43449;SDS011;29041;42.266;23.110;2023-04-12T13:37:10;1.40;;;0.40;;
43449;SDS011;29041;42.266;23.110;2023-04-12T13:40:10;1.23;;;0.30;;
43449;SDS011;29041;42.266;23.110;2023-04-12T14:35:30;2.72;;;0.40;;
43449;SDS011;29041;42.266;23.110;2023-04-12T14:38:48;0.93;;;0.50;;
43449;SDS011;29041;42.266;23.110;2023-04-12T14:42:33;1.55;;;0.52;;
43449;SDS011;29041;42.266;23.110;2023-04-12T14:45:40;0.28;;;0.22;;
43449;SDS011;29041;42.266;23.110;2023-04-12T14:48:51;1.67;;;0.47;;
43449;SDS011;29041;42.266;23.110;2023-04-12T15:02:19;0.60;;;0.38;;
43449;SDS011;29041;42.266;23.110;2023-04-12T15:05:13;0.38;;;0.28;;
43449;SDS011;29041;42.266;23.110;2023-04-12T15:08:01;0.70;;;0.45;;
43449;SDS011;29041;42.266;23.110;2023-04-12T15:10:50;1.48;;;0.50;;
43449;SDS011;29041;42.266;23.110;2023-04-12T15:16:17;2.55;;;0.90;;
43449;SDS011;29041;42.266;23.110;2023-04-12T15:19:07;41.58;;;13.48;;
43449;SDS011;29041;42.266;23.110;2023-04-12T15:21:54;2.22;;;1.35;;
43449;SDS011;29041;42.266;23.110;2023-04-12T15:24:41;0.95;;;0.38;;
43449;SDS011;29041;42.266;23.110;2023-04-12T15:27:28;0.77;;;0.50;;
43449;SDS011;29041;42.266;23.110;2023-04-12T15:30:16;5.15;;;1.00;;
43449;SDS011;29041;42.266;23.110;2023-04-12T15:33:04;0.80;;;0.65;;
43449;SDS011;29041;42.266;23.110;2023-04-12T15:46:13;0.63;;;0.43;;
43449;SDS011;29041;42.266;23.110;2023-04-12T15:51:35;1.77;;;0.47;;
43449;SDS011;29041;42.266;23.110;2023-04-12T15:59:48;1.00;;;0.50;;
43449;SDS011;29041;42.266;23.110;2023-04-12T16:02:43;4.50;;;1.98;;
43449;SDS011;29041;42.266;23.110;2023-04-12T16:05:34;0.57;;;0.38;;
43449;SDS011;29041;42.266;23.110;2023-04-12T16:08:36;2.07;;;0.40;;
43449;SDS011;29041;42.266;23.110;2023-04-12T16:11:24;1.50;;;0.50;;
43449;SDS011;29041;42.266;23.110;2023-04-12T16:14:27;1.20;;;0.60;;
43449;SDS011;29041;42.266;23.110;2023-04-12T16:17:15;0.73;;;0.40;;
43449;SDS011;29041;42.266;23.110;2023-04-12T16:26:56;1.52;;;0.55;;
43449;SDS011;29041;42.266;23.110;2023-04-12T16:30:05;0.60;;;0.57;;
43449;SDS011;29041;42.266;23.110;2023-04-12T16:32:56;0.50;;;0.30;;
43449;SDS011;29041;42.266;23.110;2023-04-12T16:40:56;0.40;;;0.30;;
43449;SDS011;29041;42.266;23.110;2023-04-12T16:43:45;1.55;;;0.60;;
43449;SDS011;29041;42.266;23.110;2023-04-12T16:46:37;0.57;;;0.30;;
43449;SDS011;29041;42.266;23.110;2023-04-12T16:49:23;3.33;;;0.35;;
43449;SDS011;29041;42.266;23.110;2023-04-12T16:52:10;0.93;;;0.22;;
43449;SDS011;29041;42.266;23.110;2023-04-12T16:54:58;0.25;;;0.17;;
43449;SDS011;29041;42.266;23.110;2023-04-12T16:57:45;2.50;;;0.30;;
43449;SDS011;29041;42.266;23.110;2023-04-12T17:00:45;0.50;;;0.45;;
43449;SDS011;29041;42.266;23.110;2023-04-12T17:03:33;3.72;;;1.70;;
43449;SDS011;29041;42.266;23.110;2023-04-12T17:06:20;3.78;;;1.80;;
43449;SDS011;29041;42.266;23.110;2023-04-12T17:09:07;2.08;;;0.45;;
43449;SDS011;29041;42.266;23.110;2023-04-12T17:11:54;69.15;;;23.90;;
43449;SDS011;29041;42.266;23.110;2023-04-12T17:14:42;2.30;;;1.05;;
43449;SDS011;29041;42.266;23.110;2023-04-12T17:17:31;1.50;;;0.57;;
43449;SDS011;29041;42.266;23.110;2023-04-12T17:20:18;1.65;;;0.85;;
43449;SDS011;29041;42.266;23.110;2023-04-12T17:23:05;0.82;;;0.45;;
43449;SDS011;29041;42.266;23.110;2023-04-12T17:25:53;4.22;;;2.55;;
43449;SDS011;29041;42.266;23.110;2023-04-12T17:28:40;1.17;;;0.50;;
43449;SDS011;29041;42.266;23.110;2023-04-12T17:31:30;1.95;;;0.68;;
43449;SDS011;29041;42.266;23.110;2023-04-12T17:34:18;1.20;;;0.40;;
43449;SDS011;29041;42.266;23.110;2023-04-12T17:37:08;3.22;;;1.27;;
43449;SDS011;29041;42.266;23.110;2023-04-12T17:39:55;2.80;;;1.17;;
43449;SDS011;29041;42.266;23.110;2023-04-12T17:42:42;15.10;;;4.53;;
43449;SDS011;29041;42.266;23.110;2023-04-12T17:45:29;8.77;;;3.53;;
43449;SDS011;29041;42.266;23.110;2023-04-12T17:48:18;3.17;;;1.52;;
43449;SDS011;29041;42.266;23.110;2023-04-12T17:51:06;6.93;;;2.90;;
43449;SDS011;29041;42.266;23.110;2023-04-12T17:53:54;7.60;;;3.85;;
43449;SDS011;29041;42.266;23.110;2023-04-12T17:56:42;14.15;;;5.80;;
43449;SDS011;29041;42.266;23.110;2023-04-12T17:59:29;11.07;;;4.43;;
43449;SDS011;29041;42.266;23.110;2023-04-12T18:02:16;9.23;;;3.78;;
43449;SDS011;29041;42.266;23.110;2023-04-12T18:05:03;8.93;;;4.45;;
43449;SDS011;29041;42.266;23.110;2023-04-12T18:07:53;16.33;;;6.40;;
43449;SDS011;29041;42.266;23.110;2023-04-12T18:10:42;12.63;;;6.20;;
43449;SDS011;29041;42.266;23.110;2023-04-12T18:13:29;21.42;;;7.95;;
43449;SDS011;29041;42.266;23.110;2023-04-12T18:16:17;5.88;;;3.08;;
43449;SDS011;29041;42.266;23.110;2023-04-12T18:19:04;5.78;;;1.52;;
43449;SDS011;29041;42.266;23.110;2023-04-12T18:21:52;4.13;;;1.60;;
43449;SDS011;29041;42.266;23.110;2023-04-12T18:24:40;2.83;;;1.27;;
43449;SDS011;29041;42.266;23.110;2023-04-12T18:27:27;8.88;;;3.72;;
43449;SDS011;29041;42.266;23.110;2023-04-12T18:30:14;4.30;;;1.70;;
43449;SDS011;29041;42.266;23.110;2023-04-12T18:33:01;1.58;;;1.08;;
43449;SDS011;29041;42.266;23.110;2023-04-12T18:35:50;3.42;;;1.77;;
43449;SDS011;29041;42.266;23.110;2023-04-12T18:38:38;13.13;;;5.45;;
43449;SDS011;29041;42.266;23.110;2023-04-12T18:41:27;16.52;;;8.00;;
43449;SDS011;29041;42.266;23.110;2023-04-12T18:44:13;11.77;;;5.30;;
43449;SDS011;29041;42.266;23.110;2023-04-12T18:47:03;14.75;;;6.07;;
43449;SDS011;29041;42.266;23.110;2023-04-12T18:49:50;24.10;;;8.75;;
43449;SDS011;29041;42.266;23.110;2023-04-12T18:52:37;20.15;;;10.25;;
43449;SDS011;29041;42.266;23.110;2023-04-12T18:55:24;18.92;;;8.38;;
43449;SDS011;29041;42.266;23.110;2023-04-12T18:58:12;16.17;;;8.80;;
43449;SDS011;29041;42.266;23.110;2023-04-12T19:00:59;11.13;;;6.78;;
43449;SDS011;29041;42.266;23.110;2023-04-12T19:03:46;12.00;;;6.13;;
43449;SDS011;29041;42.266;23.110;2023-04-12T19:06:33;12.65;;;6.00;;
43449;SDS011;29041;42.266;23.110;2023-04-12T19:09:20;16.75;;;6.10;;
43449;SDS011;29041;42.266;23.110;2023-04-12T19:12:07;22.10;;;7.93;;
43449;SDS011;29041;42.266;23.110;2023-04-12T19:14:56;22.25;;;8.00;;
43449;SDS011;29041;42.266;23.110;2023-04-12T19:17:43;13.80;;;6.32;;
43449;SDS011;29041;42.266;23.110;2023-04-12T19:20:31;20.20;;;9.25;;
43449;SDS011;29041;42.266;23.110;2023-04-12T19:23:17;22.38;;;9.32;;
43449;SDS011;29041;42.266;23.110;2023-04-12T19:26:05;18.13;;;8.50;;
43449;SDS011;29041;42.266;23.110;2023-04-12T19:28:52;23.38;;;8.88;;
43449;SDS011;29041;42.266;23.110;2023-04-12T19:31:41;9.45;;;5.60;;
43449;SDS011;29041;42.266;23.110;2023-04-12T19:34:31;19.58;;;8.70;;
43449;SDS011;29041;42.266;23.110;2023-04-12T19:37:19;19.10;;;8.60;;
43449;SDS011;29041;42.266;23.110;2023-04-12T19:40:07;18.95;;;7.88;;
43449;SDS011;29041;42.266;23.110;2023-04-12T19:42:54;17.13;;;7.60;;
43449;SDS011;29041;42.266;23.110;2023-04-12T19:45:41;16.60;;;9.20;;
43449;SDS011;29041;42.266;23.110;2023-04-12T19:48:29;13.25;;;6.28;;
43449;SDS011;29041;42.266;23.110;2023-04-12T19:51:17;14.40;;;6.63;;
43449;SDS011;29041;42.266;23.110;2023-04-12T19:54:03;15.95;;;6.82;;
43449;SDS011;29041;42.266;23.110;2023-04-12T19:56:54;14.15;;;6.05;;
43449;SDS011;29041;42.266;23.110;2023-04-12T19:59:41;12.30;;;5.38;;
43449;SDS011;29041;42.266;23.110;2023-04-12T20:02:28;21.08;;;6.65;;
43449;SDS011;29041;42.266;23.110;2023-04-12T20:05:16;16.48;;;5.05;;
43449;SDS011;29041;42.266;23.110;2023-04-12T20:08:03;10.85;;;5.13;;
43449;SDS011;29041;42.266;23.110;2023-04-12T20:10:50;10.70;;;4.75;;
43449;SDS011;29041;42.266;23.110;2023-04-12T20:13:37;7.30;;;3.45;;
43449;SDS011;29041;42.266;23.110;2023-04-12T20:16:24;6.55;;;3.50;;
43449;SDS011;29041;42.266;23.110;2023-04-12T20:19:12;9.65;;;3.90;;
43449;SDS011;29041;42.266;23.110;2023-04-12T20:22:02;6.95;;;4.00;;
43449;SDS011;29041;42.266;23.110;2023-04-12T20:24:48;7.35;;;2.85;;
43449;SDS011;29041;42.266;23.110;2023-04-12T20:27:37;8.77;;;2.85;;
43449;SDS011;29041;42.266;23.110;2023-04-12T20:30:24;6.68;;;3.13;;
43449;SDS011;29041;42.266;23.110;2023-04-12T20:33:11;5.75;;;2.75;;
43449;SDS011;29041;42.266;23.110;2023-04-12T20:35:59;6.55;;;2.80;;
43449;SDS011;29041;42.266;23.110;2023-04-12T20:38:47;7.57;;;3.55;;
43449;SDS011;29041;42.266;23.110;2023-04-12T20:41:35;10.38;;;3.83;;
43449;SDS011;29041;42.266;23.110;2023-04-12T20:44:23;5.00;;;2.92;;